Latest Coastal Weather Observations for Mardie

IDW60701

Issued at 3:05 pm WST Wednesday 16 April 2014 (issued every 10 minutes, with the page automatically refreshed every 10 minutes)

About coastal observations | Map of coastal stations | Coastal observations for WA | Marine services | Other Formats
Station Details ID: 005008 Name: MARDIE Lat: -21.19 Lon: 115.98 Height: 11.0 m
Data from the previous 72 hours. | See also: Recent months at Mardie
Date/Time
WST
Temp

°C
Wind Pressure Rain
since 9am
mm
Weather Cloud Vis
km
Sea
Height
m
Swell
Dir
 
Speed
knots
Gust
knots
hPa Trend Height
m
Period
s
Dir
16/03:00pm 33.4 N 13 19 1011.2 - 0.0 - - - - - - -
16/02:30pm 34.4 N 13 19 1011.3 - 0.0 - - - - - - -
16/02:00pm 35.0 NNE 11 15 1011.4 - 0.0 - - - - - - -
16/01:30pm 35.1 ENE 8 19 1011.8 - 0.0 - - - - - - -
16/01:00pm 35.8 NE 8 12 1012.3 - 0.0 - - - - - - -
16/12:30pm 34.5 E 11 19 1012.8 - 0.0 - - - - - - -
16/12:00pm 34.7 E 11 16 1013.3 - 0.0 - - - - - - -
16/11:30am 33.8 E 11 16 1013.9 - 0.0 - - - - - - -
16/11:00am 34.3 ENE 13 22 1014.3 - 0.0 - - - - - - -
16/10:30am 33.8 ENE 16 20 1014.7 - 0.0 - - - - - - -
16/10:00am 33.2 E 12 17 1015.1 - 0.0 - - - - - - -
16/09:30am 32.0 ESE 12 16 1015.4 - 0.0 - - - - - - -
16/09:00am 30.5 E 11 14 1015.4 - 0.0 - - - - - - -
16/08:30am 28.6 ESE 9 14 1015.4 - 0.0 - - - - - - -
16/08:00am 26.1 SE 7 9 1015.4 - 0.0 - - - - - - -
16/07:30am 23.6 SE 3 4 1015.2 - 0.0 - - - - - - -
16/07:00am 21.2 SE 4 5 1015.1 - 0.0 - - - - - - -
16/06:30am 20.0 SE 4 5 1014.8 - 0.0 - - - - - - -
16/06:00am 20.1 SSE 5 6 1014.7 - 0.0 - - - - - - -
16/05:30am 20.4 SSE 4 5 1014.5 - 0.0 - - - - - - -
16/05:00am 21.0 ESE 5 6 1014.4 - 0.0 - - - - - - -
16/04:30am 21.1 ESE 4 4 1014.4 - 0.0 - - - - - - -
16/04:00am 21.5 ESE 4 4 1014.2 - 0.0 - - - - - - -
16/03:30am 22.2 SE 5 5 1014.3 - 0.0 - - - - - - -
16/03:00am 22.3 SE 5 6 1014.4 - 0.0 - - - - - - -
16/02:30am 22.5 SE 6 6 1014.5 - 0.0 - - - - - - -
16/02:00am 22.5 SSE 5 7 1014.6 - 0.0 - - - - - - -
16/01:30am 22.1 WSW 4 5 1014.8 - 0.0 - - - - - - -
16/01:00am 22.6 WSW 4 5 1015.0 - 0.0 - - - - - - -
16/12:30am 22.8 WSW 4 4 1015.0 - 0.0 - - - - - - -
16/12:00am 22.9 WSW 4 5 1015.1 - 0.0 - - - - - - -
 
Date/Time
WST
Temp

°C
Wind Pressure Rain
since 9am
mm
Weather Cloud Vis
km
Sea
Height
m
Swell
Dir
 
Speed
knots
Gust
knots
hPa Trend Height
m
Period
s
Dir
15/11:30pm 23.4 WSW 4 5 1015.3 - 0.0 - - - - - - -
15/11:00pm 23.9 WSW 3 4 1015.4 - 0.0 - - - - - - -
15/10:30pm 24.1 WSW 3 3 1015.6 - 0.0 - - - - - - -
15/10:00pm 24.6 WSW 3 4 1015.8 - 0.0 - - - - - - -
15/09:30pm 24.9 WSW 2 3 1015.8 - 0.0 - - - - - - -
15/09:00pm 25.0 W 1 3 1015.5 - 0.0 - - - - - - -
15/08:30pm 25.4 W 3 6 1015.3 - 0.0 - - - - - - -
15/08:00pm 26.2 NNW 3 4 1014.9 - 0.0 - - - - - - -
15/07:30pm 26.4 NNW 3 3 1014.4 - 0.0 - - - - - - -
15/07:00pm 27.3 NNW 3 4 1014.2 - 0.0 - - - - - - -
15/06:30pm 28.2 N 3 6 1013.8 - 0.0 - - - - - - -
15/06:00pm 29.1 N 6 9 1013.4 - 0.0 - - - - - - -
15/05:30pm 30.0 N 8 13 1013.1 - 0.0 - - - - - - -
15/05:00pm 30.8 N 8 13 1012.7 - 0.0 - - - - - - -
15/04:30pm 31.4 N 9 14 1012.6 - 0.0 - - - - - - -
15/04:00pm 32.4 NNW 11 17 1012.5 - 0.0 - - - - - - -
15/03:00pm 34.2 NE 10 13 1012.3 - 0.0 - - - - - - -
15/02:30pm 35.6 ESE 5 12 1012.4 - 0.0 - - - - - - -
15/02:00pm 35.7 ESE 9 17 1012.4 - 0.0 - - - - - - -
15/01:30pm 36.2 ESE 8 10 1012.7 - 0.0 - - - - - - -
15/01:00pm 36.0 ESE 4 11 1013.1 - 0.0 - - - - - - -
15/12:30pm 35.7 SE 10 18 1013.6 - 0.0 - - - - - - -
15/12:00pm 35.1 SE 9 11 1014.1 - 0.0 - - - - - - -
15/11:30am 34.9 E 10 16 1014.4 - 0.0 - - - - - - -
15/11:00am 34.4 E 13 20 1014.9 - 0.0 - - - - - - -
15/10:30am 34.2 E 16 21 1015.2 - 0.0 - - - - - - -
15/10:00am 33.7 E 16 22 1015.3 - 0.0 - - - - - - -
15/09:30am 32.5 E 15 20 1015.5 - 0.0 - - - - - - -
15/09:00am 31.2 E 11 15 1015.4 - 0.0 - - - - - - -
15/08:30am 28.9 ESE 11 17 1015.4 - 0.0 - - - - - - -
15/08:00am 27.3 E 8 10 1015.4 - 0.0 - - - - - - -
15/07:30am 25.9 ESE 5 8 1015.3 - 0.0 - - - - - - -
15/07:00am 23.3 ESE 6 8 1015.1 - 0.0 - - - - - - -
15/06:30am 21.9 ESE 8 9 1014.8 - 0.0 - - - - - - -
15/06:00am 20.8 SE 6 7 1014.7 - 0.0 - - - - - - -
15/05:30am 21.1 SE 6 7 1014.5 - 0.0 - - - - - - -
15/05:00am 21.4 SE 5 6 1014.3 - 0.0 - - - - - - -
15/04:30am 21.5 SE 4 5 1014.3 - 0.0 - - - - - - -
15/04:00am 22.4 ESE 5 6 1014.2 - 0.0 - - - - - - -
15/03:30am 23.1 SE 7 8 1014.2 - 0.0 - - - - - - -
15/03:00am 22.1 SE 6 7 1014.2 - 0.0 - - - - - - -
15/02:30am 22.2 SSE 7 7 1014.2 - 0.0 - - - - - - -
15/02:00am 22.3 SSE 6 6 1014.4 - 0.0 - - - - - - -
15/01:30am 22.5 SSE 5 5 1014.5 - 0.0 - - - - - - -
15/01:00am 22.9 SSE 3 4 1014.4 - 0.0 - - - - - - -
15/12:30am 23.1 SSE 4 6 1014.4 - 0.0 - - - - - - -
15/12:00am 23.7 SSE 5 5 1014.3 - 0.0 - - - - - - -
 
Date/Time
WST
Temp

°C
Wind Pressure Rain
since 9am
mm
Weather Cloud Vis
km
Sea
Height
m
Swell
Dir
 
Speed
knots
Gust
knots
hPa Trend Height
m
Period
s
Dir
14/11:30pm 24.0 SSE 5 5 1014.6 - 0.0 - - - - - - -
14/11:00pm 24.1 S 4 5 1014.7 - 0.0 - - - - - - -
14/10:30pm 24.4 S 3 4 1014.9 - 0.0 - - - - - - -
14/10:00pm 24.8 SSW 3 4 1014.8 - 0.0 - - - - - - -
14/09:30pm 25.6 SSW 2 2 1014.8 - 0.0 - - - - - - -
14/09:00pm 25.6 WSW 4 5 1014.6 - 0.0 - - - - - - -
14/08:30pm 26.5 NW 1 2 1014.2 - 0.0 - - - - - - -
14/08:00pm 26.3 NW 2 3 1014.0 - 0.0 - - - - - - -
14/07:30pm 26.9 NNW 3 4 1013.5 - 0.0 - - - - - - -
14/07:00pm 27.7 NNW 3 5 1013.0 - 0.0 - - - - - - -
14/06:30pm 28.8 N 3 6 1012.6 - 0.0 - - - - - - -
14/06:00pm 29.9 N 5 8 1012.3 - 0.0 - - - - - - -
14/05:30pm 31.1 N 7 11 1012.0 - 0.0 - - - - - - -
14/05:00pm 32.1 N 8 12 1011.8 - 0.0 - - - - - - -
14/04:30pm 32.5 N 9 14 1011.6 - 0.0 - - - - - - -
14/04:00pm 32.9 N 10 15 1011.5 - 0.0 - - - - - - -
14/03:30pm 33.3 N 11 17 1011.4 - 0.0 - - - - - - -
14/03:00pm 34.2 N 11 17 1011.4 - 0.0 - - - - - - -
14/02:30pm 34.2 N 13 19 1011.5 - 0.0 - - - - - - -
14/02:00pm 34.9 N 12 16 1011.6 - 0.0 - - - - - - -
14/01:30pm 36.7 NE 11 14 1011.8 - 0.0 - - - - - - -
14/01:00pm 36.9 E 13 18 1012.3 - 0.0 - - - - - - -
14/12:30pm 36.0 ENE 10 16 1012.6 - 0.0 - - - - - - -
14/12:00pm 35.9 E 11 17 1013.3 - 0.0 - - - - - - -
14/11:30am 34.9 E 12 21 1013.8 - 0.0 - - - - - - -
14/11:00am 34.4 E 14 21 1014.1 - 0.0 - - - - - - -
14/10:30am 34.6 ENE 17 25 1014.3 - 0.0 - - - - - - -
14/10:00am 34.2 E 17 24 1014.4 - 0.0 - - - - - - -
14/09:30am 33.2 E 18 23 1014.3 - 0.0 - - - - - - -
14/09:00am 31.6 E 16 22 1014.4 - 0.0 - - - - - - -
14/08:30am 30.5 E 15 20 1014.4 - 0.0 - - - - - - -
14/08:00am 28.5 E 12 17 1014.3 - 0.0 - - - - - - -
14/07:30am 26.1 E 8 10 1014.2 - 0.0 - - - - - - -
14/07:00am 24.1 ESE 8 10 1013.8 - 0.0 - - - - - - -
14/06:30am 21.5 ESE 7 7 1013.6 - 0.0 - - - - - - -
14/06:00am 21.8 ESE 7 8 1013.4 - 0.0 - - - - - - -
14/05:30am 21.2 ESE 6 7 1013.1 - 0.0 - - - - - - -
14/05:00am 21.5 E 4 5 1012.9 - 0.0 - - - - - - -
14/04:30am 22.0 E 5 6 1012.8 - 0.0 - - - - - - -
14/04:00am 22.5 ESE 2 4 1012.8 - 0.0 - - - - - - -
14/03:30am 22.9 ESE 6 8 1012.7 - 0.0 - - - - - - -
14/03:00am 22.9 SE 3 4 1012.6 - 0.0 - - - - - - -
14/02:30am 23.1 SE 3 5 1012.9 - 0.0 - - - - - - -
14/02:00am 23.8 SE 3 4 1013.1 - 0.0 - - - - - - -
14/01:30am 23.7 SSE 4 6 1013.2 - 0.0 - - - - - - -
14/01:00am 23.7 SE 3 3 1013.3 - 0.0 - - - - - - -
14/12:30am 24.1 SE 3 4 1013.5 - 0.0 - - - - - - -
14/12:00am 24.4 ENE 4 4 1013.5 - 0.0 - - - - - - -
 
Date/Time
WST
Temp

°C
Wind Pressure Rain
since 9am
mm
Weather Cloud Vis
km
Sea
Height
m
Swell
Dir
 
Speed
knots
Gust
knots
hPa Trend Height
m
Period
s
Dir
13/11:30pm 24.8 ENE 3 4 1013.6 - 0.0 - - - - - - -
13/11:00pm 25.3 ENE 1 2 1013.7 - 0.0 - - - - - - -
13/10:30pm 25.7 S 2 4 1013.7 - 0.0 - - - - - - -
13/10:00pm 25.9 SW 3 4 1013.9 - 0.0 - - - - - - -
13/09:30pm 26.2 N 2 4 1013.6 - 0.0 - - - - - - -
13/09:00pm 26.6 CALM 0 0 1013.4 - 0.0 - - - - - - -
13/08:30pm 27.2 N 1 2 1012.8 - 0.0 - - - - - - -
13/08:00pm 27.6 N 2 3 1012.5 - 0.0 - - - - - - -
13/07:30pm 28.3 CALM 0 0 1012.2 - 0.0 - - - - - - -
13/07:00pm 28.8 N 2 3 1011.8 - 0.0 - - - - - - -
13/06:30pm 29.5 N 3 5 1011.4 - 0.0 - - - - - - -
13/06:00pm 30.4 N 6 8 1010.9 - 0.0 - - - - - - -
13/05:30pm 31.6 N 7 12 1010.6 - 0.0 - - - - - - -
13/05:00pm 32.6 N 10 14 1010.2 - 0.0 - - - - - - -
13/04:30pm 33.7 N 10 16 1010.1 - 0.0 - - - - - - -
13/04:00pm 34.3 N 9 14 1010.1 - 0.0 - - - - - - -
13/03:30pm 35.0 N 9 16 1010.4 - 0.0 - - - - - - -

Other Formats:

Comma delimited format used in spreadsheet applications
http://www.bom.gov.au/fwo/IDW60701/IDW60701.94306.axf

JavaScript Object Notation format (JSON) in row-major order
http://www.bom.gov.au/fwo/IDW60701/IDW60701.94306.json